sensor_id;sensor_type;location;lat;lon;timestamp;temperature;humidity
34833;DHT22;55941;50.800;4.342;2023-05-10T00:00:26;13.40;99.90
34833;DHT22;55941;50.800;4.342;2023-05-10T00:02:52;13.50;99.90
34833;DHT22;55941;50.800;4.342;2023-05-10T00:05:18;13.40;99.90
34833;DHT22;55941;50.800;4.342;2023-05-10T00:07:44;13.40;99.90
34833;DHT22;55941;50.800;4.342;2023-05-10T00:10:10;13.40;99.90
34833;DHT22;55941;50.800;4.342;2023-05-10T00:12:36;13.40;99.90
34833;DHT22;55941;50.800;4.342;2023-05-10T00:15:03;13.40;99.90
34833;DHT22;55941;50.800;4.342;2023-05-10T00:17:29;13.30;99.90
34833;DHT22;55941;50.800;4.342;2023-05-10T00:19:54;13.30;99.90
34833;DHT22;55941;50.800;4.342;2023-05-10T00:22:20;13.20;99.90
34833;DHT22;55941;50.800;4.342;2023-05-10T00:24:48;13.10;99.90
34833;DHT22;55941;50.800;4.342;2023-05-10T00:27:14;13.20;99.90
34833;DHT22;55941;50.800;4.342;2023-05-10T00:29:39;13.20;99.90
34833;DHT22;55941;50.800;4.342;2023-05-10T00:32:05;13.30;99.90
34833;DHT22;55941;50.800;4.342;2023-05-10T00:34:31;13.30;99.90
34833;DHT22;55941;50.800;4.342;2023-05-10T00:36:57;13.30;99.90
34833;DHT22;55941;50.800;4.342;2023-05-10T00:39:23;13.20;99.90
34833;DHT22;55941;50.800;4.342;2023-05-10T00:41:51;13.30;99.90
34833;DHT22;55941;50.800;4.342;2023-05-10T00:44:17;13.30;99.90
34833;DHT22;55941;50.800;4.342;2023-05-10T00:46:44;13.30;99.90
34833;DHT22;55941;50.800;4.342;2023-05-10T00:49:10;13.40;99.90
34833;DHT22;55941;50.800;4.342;2023-05-10T00:51:37;13.40;99.90
34833;DHT22;55941;50.800;4.342;2023-05-10T00:54:04;13.30;99.90
34833;DHT22;55941;50.800;4.342;2023-05-10T00:56:30;13.40;99.90
34833;DHT22;55941;50.800;4.342;2023-05-10T00:58:56;13.50;99.90
34833;DHT22;55941;50.800;4.342;2023-05-10T01:01:22;13.40;99.90
34833;DHT22;55941;50.800;4.342;2023-05-10T01:03:50;13.50;99.90
34833;DHT22;55941;50.800;4.342;2023-05-10T01:06:16;13.40;99.90
34833;DHT22;55941;50.800;4.342;2023-05-10T01:08:41;13.40;99.90
34833;DHT22;55941;50.800;4.342;2023-05-10T01:11:07;13.50;99.90
34833;DHT22;55941;50.800;4.342;2023-05-10T01:13:36;13.50;99.90
34833;DHT22;55941;50.800;4.342;2023-05-10T01:16:04;13.50;99.90
34833;DHT22;55941;50.800;4.342;2023-05-10T01:18:35;13.50;99.90
34833;DHT22;55941;50.800;4.342;2023-05-10T01:21:11;13.60;99.90
34833;DHT22;55941;50.800;4.342;2023-05-10T01:32:43;13.60;99.90
34833;DHT22;55941;50.800;4.342;2023-05-10T01:38:18;13.50;99.90
34833;DHT22;55941;50.800;4.342;2023-05-10T01:41:11;13.50;99.90
34833;DHT22;55941;50.800;4.342;2023-05-10T01:43:40;13.50;99.90
34833;DHT22;55941;50.800;4.342;2023-05-10T01:46:14;13.40;99.90
34833;DHT22;55941;50.800;4.342;2023-05-10T01:48:54;13.40;99.90
34833;DHT22;55941;50.800;4.342;2023-05-10T01:51:24;13.50;99.90
34833;DHT22;55941;50.800;4.342;2023-05-10T01:53:58;13.50;99.90
34833;DHT22;55941;50.800;4.342;2023-05-10T01:56:26;13.50;99.90
34833;DHT22;55941;50.800;4.342;2023-05-10T01:58:54;13.50;99.90
34833;DHT22;55941;50.800;4.342;2023-05-10T02:01:21;13.50;99.90
34833;DHT22;55941;50.800;4.342;2023-05-10T02:03:50;13.40;99.90
34833;DHT22;55941;50.800;4.342;2023-05-10T02:06:18;13.40;99.90
34833;DHT22;55941;50.800;4.342;2023-05-10T02:08:45;13.50;99.90
34833;DHT22;55941;50.800;4.342;2023-05-10T02:11:13;13.40;99.90
34833;DHT22;55941;50.800;4.342;2023-05-10T02:13:39;13.40;99.90
34833;DHT22;55941;50.800;4.342;2023-05-10T02:16:07;13.40;99.90
34833;DHT22;55941;50.800;4.342;2023-05-10T02:18:34;13.40;99.90
34833;DHT22;55941;50.800;4.342;2023-05-10T02:21:02;13.40;99.90
34833;DHT22;55941;50.800;4.342;2023-05-10T02:23:30;13.30;99.90
34833;DHT22;55941;50.800;4.342;2023-05-10T02:25:57;13.30;99.90
34833;DHT22;55941;50.800;4.342;2023-05-10T02:28:24;13.30;99.90
34833;DHT22;55941;50.800;4.342;2023-05-10T02:30:52;13.30;99.90
34833;DHT22;55941;50.800;4.342;2023-05-10T02:33:19;13.30;99.90
34833;DHT22;55941;50.800;4.342;2023-05-10T02:35:46;13.40;99.90
34833;DHT22;55941;50.800;4.342;2023-05-10T02:38:15;13.40;99.90
34833;DHT22;55941;50.800;4.342;2023-05-10T02:40:43;13.40;99.90
34833;DHT22;55941;50.800;4.342;2023-05-10T02:43:12;13.40;99.90
34833;DHT22;55941;50.800;4.342;2023-05-10T02:45:40;13.30;99.90
34833;DHT22;55941;50.800;4.342;2023-05-10T02:48:07;13.30;99.90
34833;DHT22;55941;50.800;4.342;2023-05-10T02:50:33;13.30;99.90
34833;DHT22;55941;50.800;4.342;2023-05-10T02:53:06;13.30;99.90
34833;DHT22;55941;50.800;4.342;2023-05-10T02:55:40;13.30;99.90
34833;DHT22;55941;50.800;4.342;2023-05-10T02:58:07;13.30;99.90
34833;DHT22;55941;50.800;4.342;2023-05-10T03:00:33;13.20;99.90
34833;DHT22;55941;50.800;4.342;2023-05-10T03:03:00;13.30;99.90
34833;DHT22;55941;50.800;4.342;2023-05-10T03:05:26;13.20;99.90
34833;DHT22;55941;50.800;4.342;2023-05-10T03:07:53;13.20;99.90
34833;DHT22;55941;50.800;4.342;2023-05-10T03:10:22;13.10;99.90
34833;DHT22;55941;50.800;4.342;2023-05-10T03:13:07;13.10;99.90
34833;DHT22;55941;50.800;4.342;2023-05-10T03:18:22;13.10;99.90
34833;DHT22;55941;50.800;4.342;2023-05-10T03:20:50;13.20;99.90
34833;DHT22;55941;50.800;4.342;2023-05-10T03:23:27;13.20;99.90
34833;DHT22;55941;50.800;4.342;2023-05-10T03:25:55;13.20;99.90
34833;DHT22;55941;50.800;4.342;2023-05-10T03:28:24;13.20;99.90
34833;DHT22;55941;50.800;4.342;2023-05-10T03:30:52;13.30;99.90
34833;DHT22;55941;50.800;4.342;2023-05-10T03:33:19;13.30;99.90
34833;DHT22;55941;50.800;4.342;2023-05-10T03:35:45;13.30;99.90
34833;DHT22;55941;50.800;4.342;2023-05-10T03:38:12;13.20;99.90
34833;DHT22;55941;50.800;4.342;2023-05-10T03:40:38;13.30;99.90
34833;DHT22;55941;50.800;4.342;2023-05-10T03:43:04;13.30;99.90
34833;DHT22;55941;50.800;4.342;2023-05-10T03:45:30;13.30;99.90
34833;DHT22;55941;50.800;4.342;2023-05-10T03:48:00;13.20;99.90
34833;DHT22;55941;50.800;4.342;2023-05-10T03:50:25;13.30;99.90
34833;DHT22;55941;50.800;4.342;2023-05-10T03:52:51;13.20;99.90
34833;DHT22;55941;50.800;4.342;2023-05-10T03:55:17;13.20;99.90
34833;DHT22;55941;50.800;4.342;2023-05-10T03:57:43;13.20;99.90
34833;DHT22;55941;50.800;4.342;2023-05-10T04:00:09;13.20;99.90
34833;DHT22;55941;50.800;4.342;2023-05-10T04:02:35;13.20;99.90
34833;DHT22;55941;50.800;4.342;2023-05-10T04:05:01;13.20;99.90
34833;DHT22;55941;50.800;4.342;2023-05-10T04:07:29;13.20;99.90
34833;DHT22;55941;50.800;4.342;2023-05-10T04:09:54;13.40;99.90
34833;DHT22;55941;50.800;4.342;2023-05-10T04:12:21;13.40;99.90
34833;DHT22;55941;50.800;4.342;2023-05-10T04:14:47;13.40;99.90
34833;DHT22;55941;50.800;4.342;2023-05-10T04:17:13;13.40;99.90
34833;DHT22;55941;50.800;4.342;2023-05-10T04:19:38;13.30;99.90
34833;DHT22;55941;50.800;4.342;2023-05-10T04:22:05;13.30;99.90
34833;DHT22;55941;50.800;4.342;2023-05-10T04:24:31;13.40;99.90
34833;DHT22;55941;50.800;4.342;2023-05-10T04:26:57;13.30;99.90
34833;DHT22;55941;50.800;4.342;2023-05-10T04:29:22;13.20;99.90
34833;DHT22;55941;50.800;4.342;2023-05-10T04:31:48;13.20;99.90
34833;DHT22;55941;50.800;4.342;2023-05-10T04:34:14;13.10;99.90
34833;DHT22;55941;50.800;4.342;2023-05-10T04:36:40;13.20;99.90
34833;DHT22;55941;50.800;4.342;2023-05-10T04:39:05;13.10;99.90
34833;DHT22;55941;50.800;4.342;2023-05-10T04:41:31;13.00;99.90
34833;DHT22;55941;50.800;4.342;2023-05-10T04:43:57;13.00;99.90
34833;DHT22;55941;50.800;4.342;2023-05-10T04:46:23;13.10;99.90
34833;DHT22;55941;50.800;4.342;2023-05-10T04:48:48;13.10;99.90
34833;DHT22;55941;50.800;4.342;2023-05-10T04:51:14;12.90;99.90
34833;DHT22;55941;50.800;4.342;2023-05-10T04:53:39;12.70;99.90
34833;DHT22;55941;50.800;4.342;2023-05-10T04:56:05;12.70;99.90
34833;DHT22;55941;50.800;4.342;2023-05-10T04:58:32;12.60;99.90
34833;DHT22;55941;50.800;4.342;2023-05-10T05:01:05;12.50;99.90
34833;DHT22;55941;50.800;4.342;2023-05-10T05:03:31;12.50;99.90
34833;DHT22;55941;50.800;4.342;2023-05-10T05:05:58;12.60;99.90
34833;DHT22;55941;50.800;4.342;2023-05-10T05:08:24;12.50;99.90
34833;DHT22;55941;50.800;4.342;2023-05-10T05:10:49;12.70;99.90
34833;DHT22;55941;50.800;4.342;2023-05-10T05:13:18;12.70;99.90
34833;DHT22;55941;50.800;4.342;2023-05-10T05:15:44;12.70;99.90
34833;DHT22;55941;50.800;4.342;2023-05-10T05:18:09;12.70;99.90
34833;DHT22;55941;50.800;4.342;2023-05-10T05:20:35;12.80;99.90
34833;DHT22;55941;50.800;4.342;2023-05-10T05:23:01;12.70;99.90
34833;DHT22;55941;50.800;4.342;2023-05-10T05:25:28;12.70;99.90
34833;DHT22;55941;50.800;4.342;2023-05-10T05:27:54;12.70;99.90
34833;DHT22;55941;50.800;4.342;2023-05-10T05:30:19;12.80;99.90
34833;DHT22;55941;50.800;4.342;2023-05-10T05:32:45;12.80;99.90
34833;DHT22;55941;50.800;4.342;2023-05-10T05:35:13;12.70;99.90
34833;DHT22;55941;50.800;4.342;2023-05-10T05:37:40;12.80;99.90
34833;DHT22;55941;50.800;4.342;2023-05-10T05:40:06;12.60;99.90
34833;DHT22;55941;50.800;4.342;2023-05-10T05:42:32;12.60;99.90
34833;DHT22;55941;50.800;4.342;2023-05-10T05:44:58;12.60;99.90
34833;DHT22;55941;50.800;4.342;2023-05-10T05:47:24;12.50;99.90
34833;DHT22;55941;50.800;4.342;2023-05-10T05:49:50;12.50;99.90
34833;DHT22;55941;50.800;4.342;2023-05-10T05:52:15;12.40;99.90
34833;DHT22;55941;50.800;4.342;2023-05-10T05:54:41;12.40;99.90
34833;DHT22;55941;50.800;4.342;2023-05-10T05:57:07;12.40;99.90
34833;DHT22;55941;50.800;4.342;2023-05-10T05:59:33;12.30;99.90
34833;DHT22;55941;50.800;4.342;2023-05-10T06:01:58;12.30;99.90
34833;DHT22;55941;50.800;4.342;2023-05-10T06:04:24;12.40;99.90
34833;DHT22;55941;50.800;4.342;2023-05-10T06:06:50;12.40;99.90
34833;DHT22;55941;50.800;4.342;2023-05-10T06:09:17;12.30;99.90
34833;DHT22;55941;50.800;4.342;2023-05-10T06:11:42;12.40;99.90
34833;DHT22;55941;50.800;4.342;2023-05-10T06:14:08;12.40;99.90
34833;DHT22;55941;50.800;4.342;2023-05-10T06:16:35;12.30;99.90
34833;DHT22;55941;50.800;4.342;2023-05-10T06:19:01;12.20;99.90
34833;DHT22;55941;50.800;4.342;2023-05-10T06:21:27;12.20;99.90
34833;DHT22;55941;50.800;4.342;2023-05-10T06:23:55;12.20;99.90
34833;DHT22;55941;50.800;4.342;2023-05-10T06:26:21;12.10;99.90
34833;DHT22;55941;50.800;4.342;2023-05-10T06:28:46;12.20;99.90
34833;DHT22;55941;50.800;4.342;2023-05-10T06:31:12;12.20;99.90
34833;DHT22;55941;50.800;4.342;2023-05-10T06:33:38;12.30;99.90
34833;DHT22;55941;50.800;4.342;2023-05-10T06:36:04;12.20;99.90
34833;DHT22;55941;50.800;4.342;2023-05-10T06:38:31;12.30;99.90
34833;DHT22;55941;50.800;4.342;2023-05-10T06:40:57;12.40;99.90
34833;DHT22;55941;50.800;4.342;2023-05-10T06:43:23;12.30;99.90
34833;DHT22;55941;50.800;4.342;2023-05-10T06:45:50;12.30;99.90
34833;DHT22;55941;50.800;4.342;2023-05-10T06:48:15;12.30;99.90
34833;DHT22;55941;50.800;4.342;2023-05-10T06:50:41;12.20;99.90
34833;DHT22;55941;50.800;4.342;2023-05-10T06:53:07;12.20;99.90
34833;DHT22;55941;50.800;4.342;2023-05-10T07:04:47;12.20;99.90
34833;DHT22;55941;50.800;4.342;2023-05-10T07:07:14;12.20;99.90
34833;DHT22;55941;50.800;4.342;2023-05-10T07:09:40;12.20;99.90
34833;DHT22;55941;50.800;4.342;2023-05-10T07:12:06;12.20;99.90
34833;DHT22;55941;50.800;4.342;2023-05-10T07:14:32;12.20;99.90
34833;DHT22;55941;50.800;4.342;2023-05-10T07:16:58;12.20;99.90
34833;DHT22;55941;50.800;4.342;2023-05-10T07:19:24;12.20;99.90
34833;DHT22;55941;50.800;4.342;2023-05-10T07:21:50;12.20;99.90
34833;DHT22;55941;50.800;4.342;2023-05-10T07:24:16;12.30;99.90
34833;DHT22;55941;50.800;4.342;2023-05-10T07:26:42;12.30;99.90
34833;DHT22;55941;50.800;4.342;2023-05-10T07:29:08;12.40;99.90
34833;DHT22;55941;50.800;4.342;2023-05-10T07:31:35;12.40;99.90
34833;DHT22;55941;50.800;4.342;2023-05-10T07:34:01;12.40;99.90
34833;DHT22;55941;50.800;4.342;2023-05-10T07:36:27;12.50;99.90
34833;DHT22;55941;50.800;4.342;2023-05-10T07:38:54;12.40;99.90
34833;DHT22;55941;50.800;4.342;2023-05-10T07:41:20;12.40;99.90
34833;DHT22;55941;50.800;4.342;2023-05-10T07:43:46;12.40;99.90
34833;DHT22;55941;50.800;4.342;2023-05-10T07:46:12;12.60;99.90
34833;DHT22;55941;50.800;4.342;2023-05-10T07:48:38;12.50;99.90
34833;DHT22;55941;50.800;4.342;2023-05-10T07:51:05;12.40;99.90
34833;DHT22;55941;50.800;4.342;2023-05-10T07:53:34;12.40;99.90
34833;DHT22;55941;50.800;4.342;2023-05-10T07:56:22;12.40;99.90
34833;DHT22;55941;50.800;4.342;2023-05-10T07:58:52;12.50;99.90
34833;DHT22;55941;50.800;4.342;2023-05-10T08:01:19;12.50;99.90
34833;DHT22;55941;50.800;4.342;2023-05-10T08:03:45;12.50;99.90
34833;DHT22;55941;50.800;4.342;2023-05-10T08:06:12;12.60;99.90
34833;DHT22;55941;50.800;4.342;2023-05-10T08:08:41;12.60;99.90
34833;DHT22;55941;50.800;4.342;2023-05-10T08:11:07;12.50;99.90
34833;DHT22;55941;50.800;4.342;2023-05-10T08:13:33;12.60;99.90
34833;DHT22;55941;50.800;4.342;2023-05-10T08:15:59;12.60;99.90
34833;DHT22;55941;50.800;4.342;2023-05-10T08:18:26;12.70;99.90
34833;DHT22;55941;50.800;4.342;2023-05-10T08:20:52;12.80;99.90
34833;DHT22;55941;50.800;4.342;2023-05-10T08:23:18;12.60;99.90
34833;DHT22;55941;50.800;4.342;2023-05-10T08:25:44;12.70;99.90
34833;DHT22;55941;50.800;4.342;2023-05-10T08:28:10;12.90;99.90
34833;DHT22;55941;50.800;4.342;2023-05-10T08:30:36;12.90;99.90
34833;DHT22;55941;50.800;4.342;2023-05-10T08:33:02;13.00;99.90
34833;DHT22;55941;50.800;4.342;2023-05-10T08:35:28;12.90;99.90
34833;DHT22;55941;50.800;4.342;2023-05-10T08:37:54;12.90;99.90
34833;DHT22;55941;50.800;4.342;2023-05-10T08:40:20;13.00;99.90
34833;DHT22;55941;50.800;4.342;2023-05-10T08:42:54;13.10;99.90
34833;DHT22;55941;50.800;4.342;2023-05-10T08:45:23;13.20;99.90
34833;DHT22;55941;50.800;4.342;2023-05-10T08:47:50;13.00;99.90
34833;DHT22;55941;50.800;4.342;2023-05-10T08:50:20;13.00;99.90
34833;DHT22;55941;50.800;4.342;2023-05-10T08:52:48;13.00;99.90
34833;DHT22;55941;50.800;4.342;2023-05-10T08:55:15;13.10;99.90
34833;DHT22;55941;50.800;4.342;2023-05-10T08:57:42;13.10;99.90
34833;DHT22;55941;50.800;4.342;2023-05-10T09:00:08;13.10;99.90
34833;DHT22;55941;50.800;4.342;2023-05-10T09:02:36;13.00;99.90
34833;DHT22;55941;50.800;4.342;2023-05-10T09:05:03;13.10;99.90
34833;DHT22;55941;50.800;4.342;2023-05-10T09:07:30;13.00;99.90
34833;DHT22;55941;50.800;4.342;2023-05-10T09:09:57;13.10;99.90
34833;DHT22;55941;50.800;4.342;2023-05-10T09:12:23;13.10;99.90
34833;DHT22;55941;50.800;4.342;2023-05-10T09:14:50;13.10;99.90
34833;DHT22;55941;50.800;4.342;2023-05-10T09:17:18;13.10;99.90
34833;DHT22;55941;50.800;4.342;2023-05-10T09:19:45;13.00;99.90
34833;DHT22;55941;50.800;4.342;2023-05-10T09:22:11;12.90;99.90
34833;DHT22;55941;50.800;4.342;2023-05-10T09:24:37;12.90;99.90
34833;DHT22;55941;50.800;4.342;2023-05-10T09:27:07;13.00;99.90
34833;DHT22;55941;50.800;4.342;2023-05-10T09:29:42;13.00;99.90
34833;DHT22;55941;50.800;4.342;2023-05-10T09:32:08;13.10;99.90
34833;DHT22;55941;50.800;4.342;2023-05-10T09:34:35;13.10;99.90
34833;DHT22;55941;50.800;4.342;2023-05-10T09:37:05;13.10;99.90
34833;DHT22;55941;50.800;4.342;2023-05-10T09:39:36;13.10;99.90
34833;DHT22;55941;50.800;4.342;2023-05-10T09:42:05;12.90;99.90
34833;DHT22;55941;50.800;4.342;2023-05-10T09:44:32;12.80;99.90
34833;DHT22;55941;50.800;4.342;2023-05-10T09:46:59;12.80;99.90
34833;DHT22;55941;50.800;4.342;2023-05-10T09:49:26;12.80;99.90
34833;DHT22;55941;50.800;4.342;2023-05-10T09:52:06;12.70;99.90
34833;DHT22;55941;50.800;4.342;2023-05-10T09:54:33;12.60;99.90
34833;DHT22;55941;50.800;4.342;2023-05-10T09:56:59;12.70;99.90
34833;DHT22;55941;50.800;4.342;2023-05-10T09:59:27;12.60;99.90
34833;DHT22;55941;50.800;4.342;2023-05-10T10:01:58;12.60;99.90
34833;DHT22;55941;50.800;4.342;2023-05-10T10:04:28;12.70;99.90
34833;DHT22;55941;50.800;4.342;2023-05-10T10:07:04;12.70;99.90
34833;DHT22;55941;50.800;4.342;2023-05-10T10:09:31;12.70;99.90
34833;DHT22;55941;50.800;4.342;2023-05-10T10:11:57;12.80;99.90
34833;DHT22;55941;50.800;4.342;2023-05-10T10:14:25;12.90;99.90
34833;DHT22;55941;50.800;4.342;2023-05-10T10:16:52;12.80;99.90
34833;DHT22;55941;50.800;4.342;2023-05-10T10:19:21;12.90;99.90
34833;DHT22;55941;50.800;4.342;2023-05-10T10:21:49;13.10;99.90
34833;DHT22;55941;50.800;4.342;2023-05-10T10:24:15;13.20;99.90
34833;DHT22;55941;50.800;4.342;2023-05-10T10:26:42;13.30;99.90
34833;DHT22;55941;50.800;4.342;2023-05-10T10:34:56;13.50;99.90
34833;DHT22;55941;50.800;4.342;2023-05-10T10:37:22;13.50;99.90
34833;DHT22;55941;50.800;4.342;2023-05-10T10:39:49;13.50;99.90
34833;DHT22;55941;50.800;4.342;2023-05-10T10:42:44;13.50;99.90
34833;DHT22;55941;50.800;4.342;2023-05-10T10:45:15;13.50;99.90
34833;DHT22;55941;50.800;4.342;2023-05-10T10:47:42;13.50;99.90
34833;DHT22;55941;50.800;4.342;2023-05-10T10:50:09;13.50;99.90
34833;DHT22;55941;50.800;4.342;2023-05-10T10:52:37;13.60;99.90
34833;DHT22;55941;50.800;4.342;2023-05-10T10:55:20;13.70;99.90
34833;DHT22;55941;50.800;4.342;2023-05-10T10:57:53;13.90;99.90
34833;DHT22;55941;50.800;4.342;2023-05-10T11:00:32;14.10;99.90
34833;DHT22;55941;50.800;4.342;2023-05-10T11:03:19;14.10;99.90
34833;DHT22;55941;50.800;4.342;2023-05-10T11:05:47;14.30;99.90
34833;DHT22;55941;50.800;4.342;2023-05-10T11:08:16;14.50;99.90
34833;DHT22;55941;50.800;4.342;2023-05-10T11:11:03;14.50;99.90
34833;DHT22;55941;50.800;4.342;2023-05-10T11:13:34;14.70;99.90
34833;DHT22;55941;50.800;4.342;2023-05-10T11:16:19;14.70;99.90
34833;DHT22;55941;50.800;4.342;2023-05-10T11:19:07;14.50;99.90
34833;DHT22;55941;50.800;4.342;2023-05-10T11:21:34;14.70;99.90
34833;DHT22;55941;50.800;4.342;2023-05-10T11:24:14;14.80;99.90
34833;DHT22;55941;50.800;4.342;2023-05-10T11:26:41;14.90;99.90
34833;DHT22;55941;50.800;4.342;2023-05-10T11:29:07;15.00;99.90
34833;DHT22;55941;50.800;4.342;2023-05-10T11:31:34;15.20;99.90
34833;DHT22;55941;50.800;4.342;2023-05-10T11:34:01;15.20;99.90
34833;DHT22;55941;50.800;4.342;2023-05-10T11:36:35;15.20;99.90
34833;DHT22;55941;50.800;4.342;2023-05-10T11:39:01;15.10;99.90
34833;DHT22;55941;50.800;4.342;2023-05-10T11:41:29;15.30;99.90
34833;DHT22;55941;50.800;4.342;2023-05-10T11:43:56;15.30;99.90
34833;DHT22;55941;50.800;4.342;2023-05-10T11:46:25;15.40;99.90
34833;DHT22;55941;50.800;4.342;2023-05-10T11:48:56;15.50;99.90
34833;DHT22;55941;50.800;4.342;2023-05-10T11:51:24;15.70;99.90
34833;DHT22;55941;50.800;4.342;2023-05-10T11:53:54;15.70;99.90
34833;DHT22;55941;50.800;4.342;2023-05-10T11:56:20;15.80;99.90
34833;DHT22;55941;50.800;4.342;2023-05-10T11:58:55;15.90;99.90
34833;DHT22;55941;50.800;4.342;2023-05-10T12:01:26;15.70;99.90
34833;DHT22;55941;50.800;4.342;2023-05-10T12:03:54;15.80;99.90
34833;DHT22;55941;50.800;4.342;2023-05-10T12:06:22;15.70;99.90
34833;DHT22;55941;50.800;4.342;2023-05-10T12:08:48;15.70;99.90
34833;DHT22;55941;50.800;4.342;2023-05-10T12:11:18;15.80;99.90
34833;DHT22;55941;50.800;4.342;2023-05-10T12:13:45;16.10;99.90
34833;DHT22;55941;50.800;4.342;2023-05-10T12:16:24;16.30;99.90
34833;DHT22;55941;50.800;4.342;2023-05-10T12:18:55;16.60;99.90
34833;DHT22;55941;50.800;4.342;2023-05-10T12:21:21;16.60;99.90
34833;DHT22;55941;50.800;4.342;2023-05-10T12:23:52;16.50;99.90
34833;DHT22;55941;50.800;4.342;2023-05-10T12:26:21;16.50;99.90
34833;DHT22;55941;50.800;4.342;2023-05-10T12:28:47;16.60;99.90
34833;DHT22;55941;50.800;4.342;2023-05-10T12:31:13;16.80;99.90
34833;DHT22;55941;50.800;4.342;2023-05-10T12:33:41;16.90;99.90
34833;DHT22;55941;50.800;4.342;2023-05-10T12:36:09;17.00;99.90
34833;DHT22;55941;50.800;4.342;2023-05-10T12:38:37;17.10;99.90
34833;DHT22;55941;50.800;4.342;2023-05-10T12:41:13;17.10;99.90
34833;DHT22;55941;50.800;4.342;2023-05-10T12:43:39;17.00;99.90
34833;DHT22;55941;50.800;4.342;2023-05-10T12:46:10;17.10;99.90
34833;DHT22;55941;50.800;4.342;2023-05-10T12:48:40;17.60;99.90
34833;DHT22;55941;50.800;4.342;2023-05-10T12:51:07;17.80;99.90
34833;DHT22;55941;50.800;4.342;2023-05-10T12:53:38;17.60;99.90
34833;DHT22;55941;50.800;4.342;2023-05-10T12:56:04;17.20;99.90
34833;DHT22;55941;50.800;4.342;2023-05-10T12:58:30;16.90;99.90
34833;DHT22;55941;50.800;4.342;2023-05-10T13:00:57;17.40;99.90
34833;DHT22;55941;50.800;4.342;2023-05-10T13:03:23;17.70;99.90
34833;DHT22;55941;50.800;4.342;2023-05-10T13:05:49;17.70;99.90
34833;DHT22;55941;50.800;4.342;2023-05-10T13:08:15;17.60;99.90
34833;DHT22;55941;50.800;4.342;2023-05-10T13:10:42;17.80;99.90
34833;DHT22;55941;50.800;4.342;2023-05-10T13:13:08;18.00;99.90
34833;DHT22;55941;50.800;4.342;2023-05-10T13:15:34;18.40;99.90
34833;DHT22;55941;50.800;4.342;2023-05-10T13:18:00;18.60;99.90
34833;DHT22;55941;50.800;4.342;2023-05-10T13:20:26;18.90;99.90
34833;DHT22;55941;50.800;4.342;2023-05-10T13:22:52;19.20;99.90
34833;DHT22;55941;50.800;4.342;2023-05-10T13:25:18;19.20;99.90
34833;DHT22;55941;50.800;4.342;2023-05-10T13:27:45;18.90;99.90
34833;DHT22;55941;50.800;4.342;2023-05-10T13:30:11;19.20;99.90
34833;DHT22;55941;50.800;4.342;2023-05-10T13:32:37;18.90;99.90
34833;DHT22;55941;50.800;4.342;2023-05-10T13:35:05;18.90;99.90
34833;DHT22;55941;50.800;4.342;2023-05-10T13:37:31;19.20;99.90
34833;DHT22;55941;50.800;4.342;2023-05-10T13:40:03;19.50;99.90
34833;DHT22;55941;50.800;4.342;2023-05-10T13:42:30;19.50;99.90
34833;DHT22;55941;50.800;4.342;2023-05-10T13:44:57;19.30;99.90
34833;DHT22;55941;50.800;4.342;2023-05-10T13:47:23;19.30;99.90
34833;DHT22;55941;50.800;4.342;2023-05-10T13:49:49;19.10;99.90
34833;DHT22;55941;50.800;4.342;2023-05-10T13:52:15;19.30;99.90
34833;DHT22;55941;50.800;4.342;2023-05-10T13:54:41;19.10;99.90
34833;DHT22;55941;50.800;4.342;2023-05-10T13:57:07;19.00;99.90
34833;DHT22;55941;50.800;4.342;2023-05-10T13:59:33;18.80;99.90
34833;DHT22;55941;50.800;4.342;2023-05-10T14:01:59;18.70;99.90
34833;DHT22;55941;50.800;4.342;2023-05-10T14:04:28;18.50;99.90
34833;DHT22;55941;50.800;4.342;2023-05-10T14:06:53;18.70;99.90
34833;DHT22;55941;50.800;4.342;2023-05-10T14:09:19;18.40;99.90
34833;DHT22;55941;50.800;4.342;2023-05-10T14:11:46;18.10;99.90
34833;DHT22;55941;50.800;4.342;2023-05-10T14:14:12;18.00;99.90
34833;DHT22;55941;50.800;4.342;2023-05-10T14:16:42;17.70;99.90
34833;DHT22;55941;50.800;4.342;2023-05-10T14:19:08;17.50;99.90
34833;DHT22;55941;50.800;4.342;2023-05-10T14:21:34;17.70;99.90
34833;DHT22;55941;50.800;4.342;2023-05-10T14:24:00;17.50;99.90
34833;DHT22;55941;50.800;4.342;2023-05-10T14:26:26;17.50;99.90
34833;DHT22;55941;50.800;4.342;2023-05-10T14:28:52;17.50;99.90
34833;DHT22;55941;50.800;4.342;2023-05-10T14:31:21;17.50;99.90
34833;DHT22;55941;50.800;4.342;2023-05-10T14:33:49;17.30;99.90
34833;DHT22;55941;50.800;4.342;2023-05-10T14:36:15;17.20;99.90
34833;DHT22;55941;50.800;4.342;2023-05-10T14:38:41;17.40;99.90
34833;DHT22;55941;50.800;4.342;2023-05-10T14:41:08;17.30;99.90
34833;DHT22;55941;50.800;4.342;2023-05-10T14:43:34;17.20;99.90
34833;DHT22;55941;50.800;4.342;2023-05-10T14:46:00;17.00;99.90
34833;DHT22;55941;50.800;4.342;2023-05-10T14:48:27;16.70;99.90
34833;DHT22;55941;50.800;4.342;2023-05-10T14:50:56;16.70;99.90
34833;DHT22;55941;50.800;4.342;2023-05-10T14:53:22;16.70;99.90
34833;DHT22;55941;50.800;4.342;2023-05-10T14:55:48;16.70;99.90
34833;DHT22;55941;50.800;4.342;2023-05-10T14:58:14;16.70;99.90
34833;DHT22;55941;50.800;4.342;2023-05-10T15:00:40;16.70;99.90
34833;DHT22;55941;50.800;4.342;2023-05-10T15:03:06;16.60;99.90
34833;DHT22;55941;50.800;4.342;2023-05-10T15:05:32;16.60;99.90
34833;DHT22;55941;50.800;4.342;2023-05-10T15:07:59;16.30;99.90
34833;DHT22;55941;50.800;4.342;2023-05-10T15:10:25;16.10;99.90
34833;DHT22;55941;50.800;4.342;2023-05-10T15:12:51;15.80;99.90
34833;DHT22;55941;50.800;4.342;2023-05-10T15:15:16;15.80;99.90
34833;DHT22;55941;50.800;4.342;2023-05-10T15:17:42;15.70;99.90
34833;DHT22;55941;50.800;4.342;2023-05-10T15:20:09;15.70;99.90
34833;DHT22;55941;50.800;4.342;2023-05-10T15:22:35;15.70;99.90
34833;DHT22;55941;50.800;4.342;2023-05-10T15:25:00;15.70;99.90
34833;DHT22;55941;50.800;4.342;2023-05-10T15:27:27;15.70;99.90
34833;DHT22;55941;50.800;4.342;2023-05-10T15:29:54;15.90;99.90
34833;DHT22;55941;50.800;4.342;2023-05-10T15:32:20;15.80;99.90
34833;DHT22;55941;50.800;4.342;2023-05-10T15:34:46;16.00;99.90
34833;DHT22;55941;50.800;4.342;2023-05-10T15:37:12;16.00;99.90
34833;DHT22;55941;50.800;4.342;2023-05-10T15:39:38;16.00;99.90
34833;DHT22;55941;50.800;4.342;2023-05-10T15:42:04;16.20;99.90
34833;DHT22;55941;50.800;4.342;2023-05-10T15:44:30;16.20;99.90
34833;DHT22;55941;50.800;4.342;2023-05-10T15:46:56;16.40;99.90
34833;DHT22;55941;50.800;4.342;2023-05-10T15:49:22;16.50;99.90
34833;DHT22;55941;50.800;4.342;2023-05-10T15:51:51;16.50;99.90
34833;DHT22;55941;50.800;4.342;2023-05-10T15:54:19;16.50;99.90
34833;DHT22;55941;50.800;4.342;2023-05-10T15:56:45;16.60;99.90
34833;DHT22;55941;50.800;4.342;2023-05-10T15:59:12;16.70;99.90
34833;DHT22;55941;50.800;4.342;2023-05-10T16:01:38;16.70;99.90